Accueil
METAR-TAF:

METAR-TAF

Aéroports :

Aéroport de Rodez-Aveyron, Marcillac

Rodez, France

latitude: 44-24N, longitude: 002-29E, altitude: 581 m

Observation

Le bulletin a été fait il y a 23 minutes, à 18:00 UTC
Vent 6 kt de nord-ouest
Température 14°C
Humidité 63%
Pression 1019 hPa
Visibilité 10 km ou plus
Quelques nuages à une hauteur de 3900 ft

METAR: LFCR 071800Z AUTO 31006KT 9999 FEW039 14/07 Q1019 NOSIG

Heure: 20:23 (18:23 UTC)

Prévision

Le bulletin a été fait il y a 1 heure et 23 minutes, à 17:00 UTC
Prévision valable du 07 à 18 UTC au 08 à 18 UTC
Vent 10 kt de ouest/nord-ouest
Visibilité 10 km ou plus
pas de nuages en-dessous de 1500 mètres et pas de cumulonimbus.
Evoluant progressivement
du 07 à 18 UTC au 07 à 20 UTC
Vent 2 kt de direction variable
Evoluant progressivement
du 08 à 08 UTC au 08 à 10 UTC
Vent 10 kt de sud/sud-est

TAF: LFCR 071700Z 0718/0818 30010KT CAVOK BECMG 0718/0720 VRB02KT BECMG 0808/0810 15010KT

Observations et prévisions météorologiques de plus de 4000 aéroports (messages METAR et TAF).

Les stations disponibles sont représentées par des disques jaunes et rouges sur la carte.

Passer la souris dessus pour voir le nom de la station.

Cliquer dessus pour voir les observations et prévisions météorologiques.

Pour changer de carte: cliquez sur les boutons verts avec une croix noire pour zoomer, sur le bouton vert avec un tiret pour effectuer un zoom arrière, ou sur les flèches vertes pour les cartes adjacentes.


METAR-TAF: